createdAt,value
2023-01-19T00:00:36.878Z,56.38
2023-01-19T00:03:03.260Z,57.12
2023-01-19T00:05:29.589Z,58.04
2023-01-19T00:07:55.908Z,56.50
2023-01-19T00:10:22.189Z,56.66
2023-01-19T00:12:48.497Z,57.01
2023-01-19T00:15:14.781Z,56.46
2023-01-19T00:17:41.129Z,56.22
2023-01-19T00:20:07.467Z,56.87
2023-01-19T00:22:33.734Z,56.47
2023-01-19T00:25:00.032Z,57.32
2023-01-19T00:27:26.349Z,56.63
2023-01-19T00:29:52.623Z,57.49
2023-01-19T00:32:18.905Z,56.50
2023-01-19T00:34:45.222Z,56.73
2023-01-19T00:37:11.502Z,56.76
2023-01-19T00:39:37.790Z,55.68
2023-01-19T00:42:04.120Z,55.68
2023-01-19T00:44:30.418Z,55.34
2023-01-19T00:46:56.714Z,54.75
2023-01-19T00:49:23.054Z,54.99
2023-01-19T00:51:49.335Z,56.51
2023-01-19T00:54:15.633Z,56.77
2023-01-19T00:56:41.964Z,56.28
2023-01-19T00:59:08.242Z,56.21
2023-01-19T01:01:45.057Z,56.10
2023-01-19T01:04:12.014Z,56.05
2023-01-19T01:06:38.309Z,57.14
2023-01-19T01:09:04.591Z,57.43
2023-01-19T01:11:30.891Z,56.48
2023-01-19T01:13:57.173Z,57.20
2023-01-19T01:16:25.324Z,56.59
2023-01-19T01:18:51.653Z,56.59
2023-01-19T01:21:17.945Z,57.64
2023-01-19T01:23:44.233Z,57.06
2023-01-19T01:26:10.531Z,56.87
2023-01-19T01:28:36.825Z,57.08
2023-01-19T01:31:03.100Z,56.90
2023-01-19T01:33:39.876Z,58.41
2023-01-19T01:36:07.687Z,58.98
2023-01-19T01:38:33.978Z,58.29
2023-01-19T01:41:00.260Z,57.34
2023-01-19T01:43:26.539Z,57.23
2023-01-19T01:45:53.042Z,56.82
2023-01-19T01:48:19.429Z,56.78
2023-01-19T01:50:45.710Z,55.60
2023-01-19T01:53:12.261Z,57.34
2023-01-19T01:55:38.759Z,57.17
2023-01-19T01:58:05.043Z,57.51
2023-01-19T02:00:31.384Z,57.53
2023-01-19T02:02:58.328Z,58.60
2023-01-19T02:05:24.885Z,57.25
2023-01-19T02:07:51.193Z,57.59
2023-01-19T02:10:17.485Z,57.50
2023-01-19T02:12:43.778Z,59.44
2023-01-19T02:15:10.078Z,59.99
2023-01-19T02:17:36.382Z,60.56
2023-01-19T02:20:02.676Z,60.59
2023-01-19T02:22:29.014Z,58.96
2023-01-19T02:24:55.301Z,59.81
2023-01-19T02:27:21.596Z,59.60
2023-01-19T02:29:47.923Z,59.83
2023-01-19T02:32:14.212Z,60.50
2023-01-19T02:34:40.496Z,58.11
2023-01-19T02:37:06.987Z,58.49
2023-01-19T02:39:33.284Z,59.25
2023-01-19T02:41:59.570Z,58.94
2023-01-19T02:44:25.885Z,59.33
2023-01-19T02:46:52.183Z,60.21
2023-01-19T02:49:18.462Z,58.76
2023-01-19T02:51:44.816Z,58.96
2023-01-19T02:54:11.106Z,58.88
2023-01-19T02:56:37.393Z,58.62
2023-01-19T02:59:03.701Z,58.21
2023-01-19T03:01:30.089Z,58.40
2023-01-19T03:03:56.423Z,57.86
2023-01-19T03:06:22.735Z,56.96
2023-01-19T03:08:49.018Z,57.44
2023-01-19T03:11:15.319Z,58.28
2023-01-19T03:13:41.606Z,59.11
2023-01-19T03:16:08.074Z,58.46
2023-01-19T03:18:34.381Z,58.65
2023-01-19T03:21:00.688Z,58.17
2023-01-19T03:23:26.977Z,58.27
2023-01-19T03:25:53.379Z,58.37
2023-01-19T03:28:19.682Z,58.36
2023-01-19T03:30:46.206Z,57.64
2023-01-19T03:33:12.499Z,58.16
2023-01-19T03:35:38.820Z,60.06
2023-01-19T03:38:05.112Z,59.66
2023-01-19T03:40:31.403Z,58.61
2023-01-19T03:42:57.848Z,58.55
2023-01-19T03:45:24.308Z,57.58
2023-01-19T03:47:50.628Z,57.23
2023-01-19T03:50:16.926Z,57.69
2023-01-19T03:52:43.216Z,59.10
2023-01-19T03:55:09.507Z,58.68
2023-01-19T03:57:35.857Z,59.51
2023-01-19T04:00:02.177Z,59.45
2023-01-19T04:02:28.489Z,60.14
2023-01-19T04:04:54.816Z,59.33
2023-01-19T04:07:21.106Z,59.48
2023-01-19T04:09:47.395Z,60.93
2023-01-19T04:12:13.692Z,59.89
2023-01-19T04:14:40.205Z,58.98
2023-01-19T04:17:06.487Z,59.56
2023-01-19T04:19:32.797Z,58.27
2023-01-19T04:21:59.078Z,60.26
2023-01-19T04:24:25.357Z,59.81
2023-01-19T04:26:51.854Z,59.54
2023-01-19T04:29:18.262Z,60.12
2023-01-19T04:31:44.563Z,60.08
2023-01-19T04:34:10.870Z,59.98
2023-01-19T04:36:37.148Z,60.84
2023-01-19T04:39:03.451Z,60.87
2023-01-19T04:41:31.051Z,60.53
2023-01-19T04:43:57.442Z,61.77
2023-01-19T04:46:24.059Z,61.03
2023-01-19T04:48:50.410Z,60.86
2023-01-19T04:51:16.687Z,61.45
2023-01-19T04:53:42.971Z,61.38
2023-01-19T04:56:09.270Z,61.10
2023-01-19T04:58:35.538Z,61.60
2023-01-19T05:01:01.853Z,61.14
2023-01-19T05:03:28.315Z,60.34
2023-01-19T05:05:54.666Z,60.85
2023-01-19T05:08:20.975Z,60.92
2023-01-19T05:10:47.290Z,60.46
2023-01-19T05:13:13.565Z,61.14
2023-01-19T05:15:39.862Z,62.56
2023-01-19T05:18:06.239Z,62.74
2023-01-19T05:20:32.519Z,60.75
2023-01-19T05:22:59.268Z,60.35
2023-01-19T05:25:25.703Z,60.52
2023-01-19T05:27:51.995Z,61.59
2023-01-19T05:30:18.285Z,62.51
2023-01-19T05:32:44.587Z,60.82
2023-01-19T05:35:10.902Z,61.37
2023-01-19T05:37:37.183Z,60.80
2023-01-19T05:40:03.489Z,61.50
2023-01-19T05:42:32.006Z,61.82
2023-01-19T05:44:59.201Z,62.60
2023-01-19T05:47:25.514Z,62.93
2023-01-19T05:49:51.785Z,63.47
2023-01-19T05:52:18.079Z,62.33
2023-01-19T05:54:44.392Z,61.97
2023-01-19T05:57:10.675Z,62.29
2023-01-19T05:59:36.947Z,61.52
2023-01-19T06:02:03.274Z,61.50
2023-01-19T06:04:29.560Z,61.83
2023-01-19T06:06:55.876Z,62.16
2023-01-19T06:09:22.211Z,62.47
2023-01-19T06:11:48.511Z,62.78
2023-01-19T06:14:14.820Z,62.38
2023-01-19T06:16:41.201Z,63.11
2023-01-19T06:19:07.531Z,63.41
2023-01-19T06:21:33.821Z,62.91
2023-01-19T06:24:00.138Z,62.02
2023-01-19T06:26:26.431Z,61.62
2023-01-19T06:28:52.710Z,62.34
2023-01-19T06:31:19.086Z,63.35
2023-01-19T06:33:45.374Z,62.57
2023-01-19T06:36:11.661Z,62.52
2023-01-19T06:38:37.970Z,63.83
2023-01-19T06:41:04.257Z,65.00
2023-01-19T06:43:30.538Z,65.19
2023-01-19T06:45:59.890Z,65.63
2023-01-19T06:48:26.277Z,64.52
2023-01-19T06:50:52.573Z,64.44
2023-01-19T06:53:18.886Z,64.09
2023-01-19T06:55:45.175Z,63.08
2023-01-19T06:58:11.473Z,63.14
2023-01-19T07:00:37.776Z,63.30
2023-01-19T07:03:04.591Z,63.94
2023-01-19T07:05:31.137Z,65.50
2023-01-19T07:07:57.468Z,64.61
2023-01-19T07:10:23.757Z,64.26
2023-01-19T07:12:50.029Z,63.72
2023-01-19T07:15:16.542Z,62.93
2023-01-19T07:17:42.828Z,64.43
2023-01-19T07:20:09.122Z,63.47
2023-01-19T07:22:35.435Z,64.19
2023-01-19T07:25:01.801Z,63.52
2023-01-19T07:27:28.303Z,64.76
2023-01-19T07:29:54.635Z,64.95
2023-01-19T07:32:20.918Z,65.39
2023-01-19T07:34:47.196Z,64.32
2023-01-19T07:37:13.486Z,64.95
2023-01-19T07:39:39.761Z,66.46
2023-01-19T07:42:06.052Z,64.09
2023-01-19T07:44:32.349Z,63.29
2023-01-19T07:46:58.623Z,63.70
2023-01-19T07:49:24.910Z,63.34
2023-01-19T07:51:51.229Z,63.04
2023-01-19T07:54:17.503Z,63.82
2023-01-19T07:56:43.777Z,63.34
2023-01-19T07:59:10.078Z,62.64
2023-01-19T08:01:36.448Z,62.41
2023-01-19T08:04:02.751Z,62.47
2023-01-19T08:06:29.064Z,63.13
2023-01-19T08:08:55.345Z,64.11
2023-01-19T08:11:21.830Z,63.04
2023-01-19T08:13:48.143Z,63.05
2023-01-19T08:16:14.460Z,62.95
2023-01-19T08:18:40.743Z,62.80
2023-01-19T08:21:07.084Z,62.25
2023-01-19T08:23:33.389Z,63.13
2023-01-19T08:25:59.706Z,62.39
2023-01-19T08:28:26.095Z,62.57
2023-01-19T08:30:52.546Z,61.98
2023-01-19T08:33:18.897Z,62.05
2023-01-19T08:35:45.197Z,61.22
2023-01-19T08:38:11.470Z,61.01
2023-01-19T08:40:37.756Z,60.59
2023-01-19T08:43:04.235Z,61.21
2023-01-19T08:45:30.658Z,61.16
2023-01-19T08:47:57.098Z,61.48
2023-01-19T08:50:23.422Z,62.10
2023-01-19T08:52:49.702Z,61.41
2023-01-19T08:55:15.987Z,61.48
2023-01-19T08:57:42.273Z,61.34
2023-01-19T09:00:08.549Z,61.84
2023-01-19T09:02:34.976Z,61.30
2023-01-19T09:05:01.335Z,62.16
2023-01-19T09:07:27.614Z,62.61
2023-01-19T09:09:53.891Z,63.28
2023-01-19T09:12:20.179Z,62.63
2023-01-19T09:14:46.462Z,61.49
2023-01-19T09:17:12.756Z,62.14
2023-01-19T09:19:39.057Z,62.74
2023-01-19T09:22:05.331Z,61.80
2023-01-19T09:24:31.608Z,62.25
2023-01-19T09:26:57.939Z,61.79
2023-01-19T09:29:24.227Z,60.15
2023-01-19T09:31:50.542Z,61.45
2023-01-19T09:34:16.892Z,62.92
2023-01-19T09:36:43.170Z,62.19
2023-01-19T09:39:09.455Z,62.12
2023-01-19T09:41:35.760Z,62.01
2023-01-19T09:44:02.036Z,61.12
2023-01-19T09:46:28.357Z,60.83
2023-01-19T09:48:54.664Z,60.32
2023-01-19T09:51:20.949Z,61.51
2023-01-19T09:53:47.242Z,59.75
2023-01-19T09:56:13.551Z,60.03
2023-01-19T09:58:39.855Z,59.32
2023-01-19T10:01:06.290Z,58.84
2023-01-19T10:03:32.616Z,60.66
2023-01-19T10:05:58.910Z,60.24
2023-01-19T10:08:25.198Z,60.22
2023-01-19T10:10:51.504Z,60.82
2023-01-19T10:13:17.796Z,60.29
2023-01-19T10:15:44.206Z,60.22
2023-01-19T10:18:10.535Z,60.59
2023-01-19T10:20:36.834Z,59.65
2023-01-19T10:23:03.631Z,59.60
2023-01-19T10:25:30.382Z,60.79
2023-01-19T10:27:56.688Z,62.21
2023-01-19T10:30:22.967Z,61.67
2023-01-19T10:32:49.326Z,62.68
2023-01-19T10:35:15.646Z,63.40
2023-01-19T10:37:41.933Z,60.96
2023-01-19T10:40:08.334Z,60.11
2023-01-19T10:42:34.639Z,60.62
2023-01-19T10:45:00.923Z,61.74
2023-01-19T10:47:27.243Z,61.95
2023-01-19T10:49:53.523Z,62.32
2023-01-19T10:52:19.792Z,61.05
2023-01-19T10:54:46.082Z,61.78
2023-01-19T10:57:12.378Z,60.97
2023-01-19T10:59:38.712Z,62.06
2023-01-19T11:02:05.219Z,62.22
2023-01-19T11:04:31.604Z,59.53
2023-01-19T11:06:57.875Z,59.37
2023-01-19T11:09:24.184Z,59.99
2023-01-19T11:11:50.478Z,59.26
2023-01-19T11:14:16.756Z,59.38
2023-01-19T11:16:43.091Z,58.56
2023-01-19T11:19:09.405Z,58.09
2023-01-19T11:21:35.681Z,58.48
2023-01-19T11:24:02.000Z,59.86
2023-01-19T11:26:28.306Z,59.39
2023-01-19T11:28:54.613Z,58.06
2023-01-19T11:31:21.034Z,58.22
2023-01-19T11:33:49.669Z,57.90
2023-01-19T11:36:16.806Z,57.51
2023-01-19T11:38:43.648Z,56.74
2023-01-19T11:41:09.928Z,56.70
2023-01-19T11:43:48.214Z,56.17
2023-01-19T11:46:15.453Z,58.56
2023-01-19T11:48:41.743Z,58.27
2023-01-19T11:51:08.058Z,57.82
2023-01-19T11:53:34.361Z,58.28
2023-01-19T11:56:00.647Z,59.42
2023-01-19T11:58:26.929Z,58.05
2023-01-19T12:00:53.280Z,56.95
2023-01-19T12:03:19.622Z,57.47
2023-01-19T12:05:48.107Z,56.86
2023-01-19T12:08:14.592Z,55.01
2023-01-19T12:10:40.871Z,54.29
2023-01-19T12:13:07.147Z,53.33
2023-01-19T12:15:33.454Z,54.00
2023-01-19T12:18:00.334Z,55.63
2023-01-19T12:20:26.815Z,54.10
2023-01-19T12:22:53.099Z,56.57
2023-01-19T12:25:19.374Z,56.27
2023-01-19T12:27:45.641Z,56.13
2023-01-19T12:30:11.952Z,54.80
2023-01-19T12:32:38.242Z,55.60
2023-01-19T12:35:04.528Z,54.91
2023-01-19T12:37:30.857Z,55.80
2023-01-19T12:39:57.242Z,56.46
2023-01-19T12:42:23.520Z,54.34
2023-01-19T12:44:49.864Z,55.30
2023-01-19T12:47:16.150Z,57.03
2023-01-19T12:49:42.431Z,56.78
2023-01-19T12:52:08.743Z,55.84
2023-01-19T12:54:35.047Z,55.78
2023-01-19T12:57:01.333Z,56.00
2023-01-19T12:59:27.634Z,55.68
2023-01-19T13:01:54.176Z,55.88
2023-01-19T13:04:20.561Z,55.52
2023-01-19T13:06:46.879Z,55.77
2023-01-19T13:09:13.161Z,56.36
2023-01-19T13:11:39.437Z,55.45
2023-01-19T13:14:05.736Z,56.06
2023-01-19T13:16:32.052Z,55.64
2023-01-19T13:18:58.504Z,55.62
2023-01-19T13:21:25.090Z,53.49
2023-01-19T13:23:51.373Z,51.56
2023-01-19T13:26:17.660Z,51.80
2023-01-19T13:28:43.978Z,51.02
2023-01-19T13:31:10.426Z,51.49
2023-01-19T13:33:38.098Z,51.91
2023-01-19T13:36:06.147Z,52.16
2023-01-19T13:38:32.439Z,52.28
2023-01-19T13:40:58.723Z,53.14
2023-01-19T13:43:25.028Z,53.15
2023-01-19T13:45:53.348Z,54.44
2023-01-19T13:48:19.861Z,54.08
2023-01-19T13:50:46.209Z,53.48
2023-01-19T13:53:12.509Z,53.81
2023-01-19T13:55:38.847Z,53.58
2023-01-19T13:58:05.180Z,52.29
2023-01-19T14:00:31.472Z,54.39
2023-01-19T14:02:57.792Z,51.33
2023-01-19T14:05:24.125Z,52.54
2023-01-19T14:07:50.465Z,53.25
2023-01-19T14:10:16.829Z,52.84
2023-01-19T14:12:58.180Z,52.91
2023-01-19T14:15:25.073Z,53.09
2023-01-19T14:17:51.443Z,51.51
2023-01-19T14:20:17.716Z,53.09
2023-01-19T14:22:44.017Z,53.17
2023-01-19T14:25:10.331Z,53.05
2023-01-19T14:27:36.626Z,50.94
2023-01-19T14:30:02.922Z,51.33
2023-01-19T14:32:29.217Z,50.84
2023-01-19T14:34:55.533Z,52.04
2023-01-19T14:37:21.837Z,51.26
2023-01-19T14:39:48.155Z,51.88
2023-01-19T14:42:16.639Z,49.74
2023-01-19T14:44:43.650Z,49.18
2023-01-19T14:47:09.975Z,48.99
2023-01-19T14:49:36.271Z,50.42
2023-01-19T14:52:02.580Z,48.76
2023-01-19T14:54:28.904Z,48.83
2023-01-19T14:56:55.192Z,48.68
2023-01-19T14:59:21.473Z,48.37
2023-01-19T15:01:47.838Z,48.83
2023-01-19T15:04:14.259Z,48.80
2023-01-19T15:06:40.532Z,48.67
2023-01-19T15:09:06.824Z,49.56
2023-01-19T15:11:35.229Z,48.62
2023-01-19T15:14:01.559Z,50.01
2023-01-19T15:16:27.868Z,48.72
2023-01-19T15:18:54.146Z,48.83
2023-01-19T15:21:20.463Z,51.22
2023-01-19T15:23:46.784Z,51.06
2023-01-19T15:26:13.108Z,51.86
2023-01-19T15:28:39.395Z,51.99
2023-01-19T15:31:05.778Z,51.02
2023-01-19T15:33:32.103Z,52.53
2023-01-19T15:35:58.455Z,54.04
2023-01-19T15:38:24.754Z,55.54
2023-01-19T15:40:51.668Z,55.61
2023-01-19T15:43:18.049Z,55.11
2023-01-19T15:45:44.359Z,54.31
2023-01-19T15:48:10.651Z,55.16
2023-01-19T15:50:36.934Z,54.82
2023-01-19T15:53:03.224Z,55.62
2023-01-19T15:55:29.519Z,56.32
2023-01-19T15:57:55.799Z,56.68
2023-01-19T16:00:22.158Z,56.97
2023-01-19T16:02:48.465Z,57.22
2023-01-19T16:05:14.766Z,57.81
2023-01-19T16:07:41.172Z,57.96
2023-01-19T16:10:08.083Z,58.04
2023-01-19T16:12:34.617Z,57.84
2023-01-19T16:15:00.921Z,56.44
2023-01-19T16:17:27.205Z,56.32
2023-01-19T16:19:53.487Z,57.04
2023-01-19T16:22:19.783Z,56.54
2023-01-19T16:24:46.069Z,55.41
2023-01-19T16:27:12.348Z,55.67
2023-01-19T16:29:38.678Z,56.77
2023-01-19T16:32:04.981Z,55.91
2023-01-19T16:34:31.257Z,55.90
2023-01-19T16:36:57.551Z,56.23
2023-01-19T16:39:23.829Z,54.99
2023-01-19T16:41:50.115Z,55.18
2023-01-19T16:44:16.434Z,54.74
2023-01-19T16:46:42.723Z,55.40
2023-01-19T16:49:09.011Z,55.48
2023-01-19T16:51:35.297Z,55.62
2023-01-19T16:54:01.584Z,55.48
2023-01-19T16:56:27.861Z,55.83
2023-01-19T16:58:54.175Z,56.33
2023-01-19T17:01:20.572Z,55.83
2023-01-19T17:03:46.920Z,55.79
2023-01-19T17:06:13.250Z,56.25
2023-01-19T17:08:39.519Z,56.85
2023-01-19T17:11:05.809Z,57.33
2023-01-19T17:13:32.116Z,55.85
2023-01-19T17:15:58.415Z,57.11
2023-01-19T17:18:24.703Z,57.68
2023-01-19T17:20:51.022Z,56.92
2023-01-19T17:23:17.308Z,57.03
2023-01-19T17:25:43.592Z,56.67
2023-01-19T17:28:09.883Z,57.31
2023-01-19T17:30:36.273Z,57.29
2023-01-19T17:33:02.584Z,57.26
2023-01-19T17:35:28.943Z,57.54
2023-01-19T17:37:55.269Z,58.11
2023-01-19T17:40:21.559Z,58.29
2023-01-19T17:42:47.863Z,58.03
2023-01-19T17:45:14.155Z,58.82
2023-01-19T17:47:40.439Z,57.86
2023-01-19T17:50:06.750Z,57.81
2023-01-19T17:52:33.060Z,57.68
2023-01-19T17:54:59.352Z,58.26
2023-01-19T17:57:25.679Z,57.00
2023-01-19T17:59:51.956Z,56.76
2023-01-19T18:02:18.336Z,56.72
2023-01-19T18:04:44.752Z,56.77
2023-01-19T18:07:11.093Z,56.52
2023-01-19T18:09:37.388Z,56.16
2023-01-19T18:12:03.730Z,57.36
2023-01-19T18:14:30.019Z,57.77
2023-01-19T18:16:56.328Z,57.43
2023-01-19T18:19:22.637Z,57.24
2023-01-19T18:21:48.920Z,57.98
2023-01-19T18:24:15.217Z,58.69
2023-01-19T18:26:41.510Z,58.60
2023-01-19T18:29:07.846Z,59.56
2023-01-19T18:31:34.165Z,58.13
2023-01-19T18:34:00.512Z,59.66
2023-01-19T18:36:26.901Z,57.02
2023-01-19T18:38:53.194Z,57.36
2023-01-19T18:41:19.489Z,59.25
2023-01-19T18:43:45.788Z,58.79
2023-01-19T18:46:12.140Z,59.58
2023-01-19T18:48:38.454Z,59.41
2023-01-19T18:51:04.758Z,57.40
2023-01-19T18:53:31.063Z,58.79
2023-01-19T18:55:57.729Z,59.73
2023-01-19T18:58:24.131Z,61.37
2023-01-19T19:00:50.506Z,61.57
2023-01-19T19:03:16.856Z,63.52
2023-01-19T19:05:43.221Z,62.56
2023-01-19T19:08:09.533Z,62.68
2023-01-19T19:10:36.252Z,61.55
2023-01-19T19:13:02.544Z,64.21
2023-01-19T19:15:28.834Z,64.23
2023-01-19T19:17:55.167Z,65.39
2023-01-19T19:20:21.472Z,65.21
2023-01-19T19:22:47.755Z,63.79
2023-01-19T19:25:14.060Z,63.97
2023-01-19T19:27:40.386Z,64.78
2023-01-19T19:30:06.689Z,64.46
2023-01-19T19:32:33.032Z,63.25
2023-01-19T19:34:59.343Z,62.76
2023-01-19T19:37:25.666Z,63.98
2023-01-19T19:39:52.188Z,63.33
2023-01-19T19:42:18.484Z,62.76
2023-01-19T19:44:47.522Z,60.55
2023-01-19T19:47:13.892Z,61.02
2023-01-19T19:49:40.172Z,60.71
2023-01-19T19:52:06.460Z,61.42
2023-01-19T19:54:32.833Z,60.79
2023-01-19T19:56:59.110Z,60.49
2023-01-19T19:59:25.427Z,61.59
2023-01-19T20:01:51.839Z,62.12
2023-01-19T20:04:18.195Z,62.50
2023-01-19T20:06:44.639Z,62.00
2023-01-19T20:09:11.047Z,62.41
2023-01-19T20:11:37.342Z,61.40
2023-01-19T20:14:03.633Z,60.77
2023-01-19T20:16:29.956Z,61.41
2023-01-19T20:18:56.231Z,62.96
2023-01-19T20:21:22.523Z,61.56
2023-01-19T20:23:48.833Z,62.34
2023-01-19T20:26:15.135Z,62.09
2023-01-19T20:28:41.498Z,62.55
2023-01-19T20:31:07.895Z,62.21
2023-01-19T20:33:34.187Z,63.40
2023-01-19T20:36:00.583Z,62.95
2023-01-19T20:38:26.984Z,62.67
2023-01-19T20:40:53.297Z,62.42
2023-01-19T20:43:19.580Z,62.98
2023-01-19T20:45:45.975Z,62.48
2023-01-19T20:48:12.285Z,61.29
2023-01-19T20:50:38.572Z,60.69
2023-01-19T20:53:04.889Z,59.36
2023-01-19T20:55:31.173Z,60.92
2023-01-19T20:57:57.465Z,60.72
2023-01-19T21:00:23.796Z,60.79
2023-01-19T21:02:50.165Z,61.35
2023-01-19T21:05:16.498Z,61.33
2023-01-19T21:07:43.008Z,59.62
2023-01-19T21:10:09.317Z,58.90
2023-01-19T21:12:35.620Z,58.54
2023-01-19T21:15:01.924Z,60.11
2023-01-19T21:17:28.264Z,59.59
2023-01-19T21:19:54.547Z,58.91
2023-01-19T21:22:20.860Z,60.22
2023-01-19T21:24:47.273Z,61.36
2023-01-19T21:27:13.574Z,60.96
2023-01-19T21:29:39.892Z,62.26
2023-01-19T21:32:06.232Z,61.11
2023-01-19T21:34:32.556Z,62.84
2023-01-19T21:36:58.863Z,61.09
2023-01-19T21:39:25.130Z,62.06
2023-01-19T21:41:51.417Z,63.47
2023-01-19T21:44:17.720Z,63.27
2023-01-19T21:46:44.004Z,62.59
2023-01-19T21:49:10.295Z,63.83
2023-01-19T21:51:36.606Z,65.07
2023-01-19T21:54:02.898Z,61.69
2023-01-19T21:56:29.192Z,60.02
2023-01-19T21:58:55.483Z,60.58
2023-01-19T22:01:21.868Z,60.47
2023-01-19T22:03:48.231Z,60.07
2023-01-19T22:06:14.578Z,59.81
2023-01-19T22:08:40.872Z,58.91
2023-01-19T22:11:07.162Z,60.08
2023-01-19T22:13:33.468Z,59.61
2023-01-19T22:15:59.911Z,61.10
2023-01-19T22:18:26.201Z,61.67
2023-01-19T22:20:52.532Z,61.20
2023-01-19T22:23:18.815Z,60.99
2023-01-19T22:25:45.103Z,62.01
2023-01-19T22:28:11.409Z,64.89
2023-01-19T22:30:37.767Z,62.33
2023-01-19T22:33:04.092Z,60.93
2023-01-19T22:35:30.405Z,59.21
2023-01-19T22:37:56.691Z,60.53
2023-01-19T22:40:22.999Z,61.65
2023-01-19T22:42:49.316Z,61.50
2023-01-19T22:45:15.916Z,59.94
2023-01-19T22:47:42.301Z,58.65
2023-01-19T22:50:08.607Z,59.18
2023-01-19T22:52:34.897Z,60.42
2023-01-19T22:55:01.186Z,61.68
2023-01-19T22:57:27.490Z,60.71
2023-01-19T22:59:53.788Z,59.69
2023-01-19T23:02:21.082Z,60.15
2023-01-19T23:04:47.507Z,59.53
2023-01-19T23:07:13.842Z,59.26
2023-01-19T23:09:40.136Z,60.17
2023-01-19T23:12:06.491Z,58.21
2023-01-19T23:14:32.780Z,58.80
2023-01-19T23:16:59.080Z,58.24
2023-01-19T23:19:25.387Z,58.89
2023-01-19T23:21:51.677Z,59.13
2023-01-19T23:24:17.969Z,60.60
2023-01-19T23:26:44.288Z,59.67
2023-01-19T23:29:10.576Z,61.32
2023-01-19T23:31:36.981Z,60.06
2023-01-19T23:34:03.347Z,59.26
2023-01-19T23:36:29.664Z,60.68
2023-01-19T23:38:55.956Z,59.99
2023-01-19T23:41:37.315Z,59.64
2023-01-19T23:44:03.628Z,60.19
2023-01-19T23:46:30.034Z,60.50
2023-01-19T23:48:56.434Z,59.71
2023-01-19T23:51:22.711Z,60.76
2023-01-19T23:53:49.011Z,62.00
2023-01-19T23:56:15.305Z,61.23
2023-01-19T23:58:41.612Z,60.29
